This is the latest recevied weather packets stored in our database for station/object SP1JT-10. If no packets are shown the sender has not sent any weather packets the latest 10 day(s).
| Time | Temp. | Humidity | Pressure | Rain* | Wind** | Luminosity | Snow |
|---|---|---|---|---|---|---|---|
| 1777721354 | 19.44° C | 36% | 1021.3 hPa | - | - | - | - |
| 1777718353 | 18.33° C | 38% | 1022.3 hPa | - | - | - | - |
| 1777708153 | 13.89° C | 52% | 1024.8 hPa | - | - | - | - |
| 1777706955 | 12.78° C | 55% | 1024.8 hPa | - | - | - | - |
| 1777703954 | 10° C | 61% | 1025.2 hPa | - | - | - | - |
| 1777701555 | 7.22° C | 69% | 1025.6 hPa | - | - | - | - |
| 1777694353 | 4.44° C | 74% | 1025.5 hPa | - | - | - | - |
| 1777683553 | 6.11° C | 65% | 1026.1 hPa | - | - | - | - |
| 1777679356 | 7.22° C | 60% | 1026.6 hPa | - | - | - | - |
| 1777672154 | 9.44° C | 53% | 1027.1 hPa | - | - | - | - |
| 1777667475 | 11.11° C | 46% | 1027.7 hPa | - | - | - | - |
| 1777664696 | 12.78° C | 41% | 1027.7 hPa | - | - | - | - |
| 1777661354 | 15° C | 37% | 1027.2 hPa | - | - | - | - |
| 1777659553 | 16.11° C | 34% | 1026.8 hPa | - | - | - | - |
| 1777635555 | 17.78° C | 44% | 1028.7 hPa | - | - | - | - |
| 1777634354 | 16.67° C | 46% | 1029.1 hPa | - | - | - | - |
| 1777633753 | 16.11° C | 47% | 1029 hPa | - | - | - | - |
| 1777631353 | 15.56° C | 50% | 1029.4 hPa | - | - | - | - |
| 1777630753 | 15° C | 52% | 1029.4 hPa | - | - | - | - |
| 1777625954 | 12.78° C | 60% | 1030.2 hPa | - | - | - | - |
| 1777625354 | 12.78° C | 60% | 1030.2 hPa | - | - | - | - |
| 1777614554 | 6.11° C | 77% | 1030.1 hPa | - | - | - | - |
| 1777608555 | 4.44° C | 78% | 1029.9 hPa | - | - | - | - |
| 1777607953 | 4.44° C | 76% | 1029.9 hPa | - | - | - | - |
| 1777603753 | 5° C | 71% | 1030.1 hPa | - | - | - | - |
* Rain since midnight (hover to see other rain measurements)
** Current wind speed in m/s (hover to see current wind gust speed)